Aeroporto :
LOGIN :

Iscrizione | Disclaimer

   EN    FR    IT 

 










Sommario :    VFR   VFR Marginale   IFR   IFR Intensivo   IFR Molto Intensivo
Visibilità : 
Base nubi : 
>= 8 km
>= 3000ft
5 / 8 km
1000 / 3000 ft
1500m / 5 km
500 / 1000 ft
800 / 1500m
200 / 500 ft
< 800m
< 200 ft
Simboli :   Temporali  Nebbia  Neve Forte  Precipitazioni Forti  Vento > 20 kt
SIGMETs :   Varie  Temporali  Ghiacco  Turbolenza  Onda orograficha  Ceneri Vulcaniche







- Altitudine del aeroporto : 266 ft
- Codice IATA : NCL
- Carte del aeroporto


EGNT - Newcastle

ULTIMO METAR :
  • 210550Z 24006KT 9999 FEW020 10/08 Q1015

METARs OBSOLETI :
  • 210520Z 24004KT 9999 SCT022 10/07 Q1015
  • 210450Z 23005KT 9999 BKN023 10/07 Q1015
  • 210420Z VRB03KT 9999 BKN023 10/07 Q1015
  • 210350Z 22004KT 190V250 9999 BKN023 11/07 Q1015
  • 210320Z 22004KT 9999 BKN024 11/07 Q1014

TAF TAF EGNT
Valido dal 21 a 06 ore il 22 a 06 ore UTC


210502Z 2106/2206 22009KT 9999 SCT040
PROB30
TEMPO 2106/2112 23015G25KT 8000 -RADZ BKN014
ATIS : +44 191 214 3400
Nessun NOTAM noto per questo aeroporto.



MetMap, La meteo Aeronautica in un colpo d'occhio ! - Copyright ORBIFLY Dicembre 2007 - Disclaimer

ORBIFLY MET'MAP TEAM :

Programmazione e sviluppo : Alexandra Zaïnal
Concezione e sviluppo : Baudouin d'Aumeries
Co-Programmazione e sviluppo : Marc-Olivier Méhu
Supporto tecnico e logistico : Manuel Goepfert
Aiuto per la traduzione : Arnaldo La Scala

Contatto : metmap@orbifly.com




FONTI E CREDITI :

   NOAA